Time;durP1;ratioP1;P1;durP2;ratioP2;P2;SDS_P1;SDS_P2;PMS_P1;PMS_P2;Temp;Humidity;BMP_temperature;BMP_pressure;BME280_temperature;BME280_humidity;BME280_pressure;Samples;Min_cycle;Max_cycle;Signal;HPM_P1;HPM_P2
2022/09/16 00:02:13;;;;;;;;;;;;;;;27.25;35.81;99832.66;5039965;28;1136;-33
2022/09/16 00:04:39;;;;;;;;;;;;;;;27.17;35.81;99834.72;5039131;28;1088;-36
2022/09/16 00:07:04;;;;;;;;;;;;;;;27.30;35.92;99833.88;5038984;28;1128;-38
2022/09/16 00:09:29;;;;;;;;;;;;;;;27.19;35.63;99833.47;5043425;28;1164;-37
2022/09/16 00:11:55;;;;;;;;;;;;;;;27.17;35.55;99832.84;5044024;28;1143;-35
2022/09/16 00:14:20;;;;;;;;;;;;;;;27.30;35.79;99831.19;5038824;28;1965;-36
2022/09/16 00:16:45;;;;;;;;;;;;;;;27.16;35.90;99830.34;5038848;28;2500;-35
2022/09/16 00:19:12;;;;;;;;;;;;;;;27.22;35.77;99832.22;5038349;28;1210;-36
2022/09/16 00:21:37;;;;;;;;;;;;;;;27.27;35.89;99832.44;5043197;28;1178;-38
2022/09/16 00:24:02;;;;;;;;;;;;;;;27.24;36.03;99836.38;5041508;28;1151;-33
2022/09/16 00:26:28;;;;;;;;;;;;;;;27.13;36.09;99828.88;5038700;28;1132;-37
2022/09/16 00:28:54;;;;;;;;;;;;;;;27.22;36.16;99833.06;5039463;28;1111;-36
2022/09/16 00:31:19;;;;;;;;;;;;;;;27.30;35.80;99828.47;5051898;28;1123;-37
2022/09/16 00:33:44;;;;;;;;;;;;;;;27.21;35.77;99833.28;5058395;28;1973;-37
2022/09/16 00:36:09;;;;;;;;;;;;;;;27.23;35.48;99834.72;5039829;28;1068;-35
2022/09/16 00:38:35;;;;;;;;;;;;;;;27.30;35.94;99832.03;5038493;28;1132;-33
2022/09/16 00:41:00;;;;;;;;;;;;;;;27.15;35.76;99832.22;5040926;28;1144;-37
2022/09/16 00:43:26;;;;;;;;;;;;;;;27.19;35.69;99833.47;5038005;28;1128;-36
2022/09/16 00:45:54;;;;;;;;;;;;;;;27.23;35.80;99837.41;5048521;28;1155;-37
2022/09/16 00:48:20;;;;;;;;;;;;;;;27.16;35.39;99828.47;5039838;28;2339;-37
2022/09/16 00:50:47;;;;;;;;;;;;;;;27.23;35.81;99829.31;5036671;28;1148;-35
2022/09/16 00:53:15;;;;;;;;;;;;;;;27.21;35.80;99825.97;5038464;28;1965;-34
2022/09/16 00:55:40;;;;;;;;;;;;;;;27.09;35.88;99819.56;5037063;28;1179;-34
2022/09/16 00:58:08;;;;;;;;;;;;;;;27.18;36.58;99825.56;5044523;28;1187;-37
2022/09/16 01:00:33;;;;;;;;;;;;;;;27.17;35.92;99832.84;5056823;28;1243;-35
2022/09/16 01:02:58;;;;;;;;;;;;;;;27.13;35.55;99834.28;5045523;28;1167;-34
2022/09/16 01:05:25;;;;;;;;;;;;;;;27.27;36.16;99827.03;5038179;28;1084;-36
2022/09/16 01:07:50;;;;;;;;;;;;;;;27.22;36.12;99827.66;5036020;28;1160;-38
2022/09/16 01:10:17;;;;;;;;;;;;;;;27.14;35.91;99825.97;5042113;28;1149;-34
2022/09/16 01:12:43;;;;;;;;;;;;;;;27.22;35.91;99819.56;5037830;28;1971;-36
2022/09/16 01:15:09;;;;;;;;;;;;;;;27.13;35.91;99824.31;5036355;28;1136;-37
2022/09/16 01:17:46;;;;;;;;;;;;;;;27.11;35.81;99817.47;5037414;28;2528;-37
2022/09/16 01:20:23;;;;;;;;;;;;;;;27.21;36.06;99820.59;5037553;28;1172;-36
2022/09/16 01:22:55;;;;;;;;;;;;;;;27.21;35.73;99825.97;5041244;28;959;-36
2022/09/16 01:25:27;;;;;;;;;;;;;;;27.14;35.55;99819.78;5037521;28;1128;-36
2022/09/16 01:28:11;;;;;;;;;;;;;;;27.19;36.17;99822.69;5037335;28;1115;-37
2022/09/16 01:30:41;;;;;;;;;;;;;;;27.23;36.04;99826.63;5037091;28;1119;-35
2022/09/16 01:33:13;;;;;;;;;;;;;;;27.13;35.77;99821.63;5044116;28;1910;-37
2022/09/16 01:36:07;;;;;;;;;;;;;;;27.11;36.02;99817.47;5042621;28;1024;-38
2022/09/16 01:38:41;;;;;;;;;;;;;;;27.22;35.96;99814.16;4991010;28;1365;-37
2022/09/16 01:41:13;;;;;;;;;;;;;;;27.14;36.18;99808.97;5051203;28;1163;-37
2022/09/16 01:43:38;;;;;;;;;;;;;;;27.08;35.96;99805.22;5037225;28;1044;-36
2022/09/16 01:46:36;;;;;;;;;;;;;;;27.28;35.97;99808.97;5048760;28;1155;-37
2022/09/16 01:49:03;;;;;;;;;;;;;;;27.12;36.08;99808.34;5003831;28;1148;-37
2022/09/16 01:51:50;;;;;;;;;;;;;;;27.05;36.18;99804.78;5035173;28;1226;-35
2022/09/16 01:54:15;;;;;;;;;;;;;;;27.22;35.98;99813.31;5037472;28;1898;-38
2022/09/16 01:56:42;;;;;;;;;;;;;;;27.05;35.50;99804.78;5036936;28;1105;-37
2022/09/16 01:59:15;;;;;;;;;;;;;;;27.13;35.73;99813.53;5039968;28;909;-36
2022/09/16 02:01:41;;;;;;;;;;;;;;;27.19;36.00;99803.78;5035542;28;1129;-37
2022/09/16 02:04:10;;;;;;;;;;;;;;;27.24;35.98;99803.97;5037067;28;1147;-37
2022/09/16 02:06:36;;;;;;;;;;;;;;;27.29;35.96;99808.78;5035309;28;1137;-38
2022/09/16 02:09:03;;;;;;;;;;;;;;;27.07;36.04;99811.66;5036666;28;1199;-37
2022/09/16 02:11:28;;;;;;;;;;;;;;;27.14;35.98;99814.38;5036960;28;922;-37
2022/09/16 02:14:02;;;;;;;;;;;;;;;27.31;35.63;99816.66;5035764;28;1909;-37
2022/09/16 02:16:27;;;;;;;;;;;;;;;27.19;36.21;99817.28;5035151;28;1188;-37
2022/09/16 02:18:54;;;;;;;;;;;;;;;27.05;36.21;99810.19;5038417;28;2566;-36
2022/09/16 02:21:20;;;;;;;;;;;;;;;27.16;35.99;99812.28;5046695;28;1060;-37
2022/09/16 02:23:46;;;;;;;;;;;;;;;27.14;35.96;99817.06;5035331;28;934;-37
2022/09/16 02:26:12;;;;;;;;;;;;;;;27.10;36.01;99811.25;5035004;28;1219;-37
2022/09/16 02:28:39;;;;;;;;;;;;;;;27.27;36.10;99808.13;5035347;28;1093;-36
2022/09/16 02:31:09;;;;;;;;;;;;;;;27.26;35.57;99809.16;5035044;28;1101;-36
2022/09/16 02:33:36;;;;;;;;;;;;;;;27.00;35.70;99806.22;5036118;28;1925;-35
2022/09/16 02:36:01;;;;;;;;;;;;;;;27.10;36.29;99810.41;5049147;28;1136;-36
2022/09/16 02:38:30;;;;;;;;;;;;;;;27.44;35.61;99808.56;5036710;28;1151;-37
2022/09/16 02:40:56;;;;;;;;;;;;;;;27.23;36.14;99817.69;5052459;28;1176;-37
2022/09/16 02:43:21;;;;;;;;;;;;;;;27.16;35.95;99814.97;5036529;28;1234;-34
2022/09/16 02:45:52;;;;;;;;;;;;;;;27.34;35.99;99819.75;5044770;28;1145;-35
2022/09/16 02:48:31;;;;;;;;;;;;;;;27.13;36.27;99820.78;5038015;28;2484;-37
2022/09/16 02:51:01;;;;;;;;;;;;;;;27.20;35.99;99818.94;5034570;28;1215;-36
2022/09/16 02:53:31;;;;;;;;;;;;;;;27.50;35.96;99823.09;5035664;28;1886;-36
2022/09/16 02:55:58;;;;;;;;;;;;;;;27.21;35.97;99819.78;5035378;28;1109;-37
2022/09/16 02:58:23;;;;;;;;;;;;;;;27.19;35.74;99825.38;5036652;28;1108;-33
2022/09/16 03:00:49;;;;;;;;;;;;;;;27.43;36.19;99825.78;5055882;28;1155;-37
2022/09/16 03:03:14;;;;;;;;;;;;;;;27.48;35.59;99819.75;5042768;28;1091;-36
2022/09/16 03:06:09;;;;;;;;;;;;;;;27.32;35.77;99821.84;5035599;28;1132;-35
2022/09/16 03:08:34;;;;;;;;;;;;;;;27.37;35.87;99821.22;5022559;28;1294;-37
2022/09/16 03:11:14;;;;;;;;;;;;;;;27.33;36.00;99804.59;5039633;28;1253;-34
2022/09/16 03:13:46;;;;;;;;;;;;;;;27.16;36.13;99808.75;5040371;28;1981;-38
2022/09/16 03:16:11;;;;;;;;;;;;;;;27.34;36.16;99805.44;5035454;28;1194;-36
2022/09/16 03:18:40;;;;;;;;;;;;;;;27.13;36.38;99808.13;5040263;28;1840;-38
2022/09/16 03:21:12;;;;;;;;;;;;;;;27.39;36.13;99819.16;5038288;28;1125;-36
2022/09/16 03:23:45;;;;;;;;;;;;;;;27.29;36.18;99827.69;5047008;28;1128;-37
2022/09/16 03:26:20;;;;;;;;;;;;;;;27.05;36.43;99818.28;5039837;28;1167;-36
2022/09/16 03:28:45;;;;;;;;;;;;;;;27.21;36.42;99825.97;5042344;28;1139;-35
2022/09/16 03:31:13;;;;;;;;;;;;;;;27.31;35.94;99822.06;5065148;28;1166;-36
2022/09/16 03:34:10;;;;;;;;;;;;;;;27.12;36.67;99825.38;5039330;28;1959;-37
2022/09/16 03:36:40;;;;;;;;;;;;;;;27.09;36.22;99828.47;5029990;28;1404;-36
2022/09/16 03:39:05;;;;;;;;;;;;;;;27.25;36.65;99837.22;5039324;28;1113;-36
2022/09/16 03:41:31;;;;;;;;;;;;;;;27.34;36.25;99835.16;5039832;28;1107;-35
2022/09/16 03:43:57;;;;;;;;;;;;;;;27.21;36.66;99839.50;5038511;28;1140;-36
2022/09/16 03:46:22;;;;;;;;;;;;;;;27.28;37.00;99839.50;5053227;28;1077;-38
2022/09/16 03:48:47;;;;;;;;;;;;;;;27.21;36.75;99844.06;5057083;28;2510;-38
2022/09/16 03:51:13;;;;;;;;;;;;;;;27.20;36.41;99845.09;5046615;28;1131;-38
2022/09/16 03:53:38;;;;;;;;;;;;;;;27.23;36.78;99852.78;5043618;28;1956;-36
2022/09/16 03:56:04;;;;;;;;;;;;;;;27.23;37.54;99853.63;5054118;28;1200;-38
2022/09/16 03:58:29;;;;;;;;;;;;;;;27.23;38.12;99855.47;5047069;28;1251;-35
2022/09/16 04:00:55;;;;;;;;;;;;;;;27.02;37.80;99854.63;5058887;28;908;-38
2022/09/16 04:03:20;;;;;;;;;;;;;;;27.05;36.10;99847.97;5044229;28;1307;-37
2022/09/16 04:05:46;;;;;;;;;;;;;;;26.56;35.33;99848.03;5038810;28;1241;-37
2022/09/16 04:08:11;;;;;;;;;;;;;;;26.22;34.98;99854.06;5039366;28;1100;-34
2022/09/16 04:10:36;;;;;;;;;;;;;;;26.21;34.63;99854.25;5047802;28;1104;-36
2022/09/16 04:13:02;;;;;;;;;;;;;;;26.64;35.66;99856.75;5049413;28;1953;-39
2022/09/16 04:15:27;;;;;;;;;;;;;;;25.86;35.62;99855.88;5038658;28;1171;-41
2022/09/16 04:17:55;;;;;;;;;;;;;;;23.09;38.88;99861.09;5038701;28;2576;-37
2022/09/16 04:20:20;;;;;;;;;;;;;;;21.48;41.59;99855.53;5038356;28;1167;-38
2022/09/16 04:22:45;;;;;;;;;;;;;;;21.21;47.62;99849.47;5039086;28;1202;-38
2022/09/16 04:25:10;;;;;;;;;;;;;;;21.28;49.24;99849.66;5045286;28;958;-36
2022/09/16 04:27:36;;;;;;;;;;;;;;;21.19;50.40;99859.50;5038011;28;1124;-38
2022/09/16 04:30:01;;;;;;;;;;;;;;;21.07;50.86;99852.81;5039016;28;1112;-36
2022/09/16 04:32:26;;;;;;;;;;;;;;;20.86;51.72;99849.53;5038401;28;1037;-37
2022/09/16 04:34:51;;;;;;;;;;;;;;;20.77;52.00;99854.00;5039815;28;1911;-39
2022/09/16 04:37:17;;;;;;;;;;;;;;;20.51;51.81;99859.44;5050077;28;954;-35
2022/09/16 04:39:42;;;;;;;;;;;;;;;20.47;52.25;99855.41;5047042;28;1135;-40
2022/09/16 04:42:11;;;;;;;;;;;;;;;20.23;52.36;99855.13;5040910;28;1103;-39
2022/09/16 04:44:36;;;;;;;;;;;;;;;20.49;52.76;99848.91;5038172;28;1219;-38
2022/09/16 04:47:02;;;;;;;;;;;;;;;20.57;52.89;99853.44;5052487;28;2397;-39
2022/09/16 04:49:27;;;;;;;;;;;;;;;20.64;52.58;99858.97;5045150;28;1110;-40
2022/09/16 04:51:52;;;;;;;;;;;;;;;20.58;52.96;99855.13;5044065;28;1139;-40
2022/09/16 04:54:18;;;;;;;;;;;;;;;20.58;53.05;99852.47;5038237;28;1894;-39
2022/09/16 04:56:43;;;;;;;;;;;;;;;20.52;53.26;99861.94;5037849;28;1230;-39
2022/09/16 04:59:08;;;;;;;;;;;;;;;20.63;53.11;99850.13;5037932;28;1093;-39
2022/09/16 05:01:35;;;;;;;;;;;;;;;20.56;53.14;99851.78;5041917;28;929;-39
2022/09/16 05:04:01;;;;;;;;;;;;;;;20.47;53.03;99856.22;5044507;28;1128;-35
2022/09/16 05:06:27;;;;;;;;;;;;;;;20.09;53.70;99851.19;5044848;28;1143;-43
2022/09/16 05:08:53;;;;;;;;;;;;;;;19.88;53.75;99851.53;5037872;28;1156;-39
2022/09/16 05:11:19;;;;;;;;;;;;;;;19.80;54.29;99857.66;5038440;28;1124;-39
2022/09/16 05:13:44;;;;;;;;;;;;;;;19.69;54.31;99846.25;5041136;28;1902;-38
2022/09/16 05:16:10;;;;;;;;;;;;;;;19.72;54.65;99854.94;5038531;28;1155;-36
2022/09/16 05:18:36;;;;;;;;;;;;;;;20.75;55.77;99849.84;5036570;28;2592;-39
2022/09/16 05:21:01;;;;;;;;;;;;;;;22.75;48.93;99861.28;5037561;28;1197;-38
2022/09/16 05:23:27;;;;;;;;;;;;;;;21.99;50.91;99865.22;5038582;28;1123;-40
2022/09/16 05:25:52;;;;;;;;;;;;;;;21.21;53.33;99857.50;5038691;28;1123;-36
2022/09/16 05:28:17;;;;;;;;;;;;;;;21.14;53.13;99854.63;5037913;28;1081;-40
2022/09/16 05:30:43;;;;;;;;;;;;;;;21.35;52.70;99845.31;5037588;28;1155;-42
2022/09/16 05:33:08;;;;;;;;;;;;;;;21.95;50.36;99849.66;5037299;28;1910;-40
2022/09/16 05:35:34;;;;;;;;;;;;;;;22.25;49.32;99844.56;5037672;28;1104;-38
2022/09/16 05:37:59;;;;;;;;;;;;;;;22.15;49.70;99847.44;5037358;28;1128;-34
2022/09/16 05:40:26;;;;;;;;;;;;;;;22.26;48.19;99852.44;5038829;28;1143;-40
2022/09/16 05:42:51;;;;;;;;;;;;;;;21.20;50.65;99852.31;5037216;28;1176;-40
2022/09/16 05:45:17;;;;;;;;;;;;;;;20.63;52.98;99846.63;5046067;28;1529;-36
2022/09/16 05:47:46;;;;;;;;;;;;;;;20.54;53.13;99851.09;5046963;28;2216;-35
2022/09/16 05:50:11;;;;;;;;;;;;;;;20.58;53.25;99856.94;5042839;28;1194;-33
2022/09/16 05:52:36;;;;;;;;;;;;;;;20.77;52.77;99854.00;5036770;28;1175;-35
2022/09/16 05:55:02;;;;;;;;;;;;;;;21.07;51.98;99858.97;5040260;28;1906;-32
2022/09/16 05:57:27;;;;;;;;;;;;;;;22.99;47.95;99870.22;5049669;28;1040;-30
2022/09/16 05:59:52;;;;;;;;;;;;;;;22.87;46.25;99863.59;5050108;28;1143;-37
2022/09/16 06:02:17;;;;;;;;;;;;;;;21.67;49.62;99863.38;5042664;28;1131;-33
2022/09/16 06:04:43;;;;;;;;;;;;;;;21.35;50.13;99863.19;5042151;28;1235;-37
2022/09/16 06:07:09;;;;;;;;;;;;;;;21.48;50.06;99868.91;5048040;28;1235;-33
2022/09/16 06:09:34;;;;;;;;;;;;;;;21.40;50.23;99869.72;5037973;28;1226;-35
2022/09/16 06:11:59;;;;;;;;;;;;;;;22.39;49.92;99869.78;5039440;28;1636;-34
2022/09/16 06:14:25;;;;;;;;;;;;;;;24.40;44.32;99874.63;5037335;28;1930;-33
2022/09/16 06:16:50;;;;;;;;;;;;;;;24.78;46.40;99869.13;5036543;28;1108;-35
2022/09/16 06:19:16;;;;;;;;;;;;;;;25.68;42.27;99873.38;5036434;28;1124;-35
2022/09/16 06:21:42;;;;;;;;;;;;;;;23.57;47.41;99869.00;5036598;28;1108;-34
2022/09/16 06:24:08;;;;;;;;;;;;;;;24.18;46.01;99875.38;5040434;28;1517;-33
2022/09/16 06:26:33;;;;;;;;;;;;;;;24.34;46.93;99871.66;5048760;28;1249;-32
2022/09/16 06:28:58;;;;;;;;;;;;;;;23.45;53.42;99879.38;5045367;28;1450;-35
2022/09/16 06:31:24;;;;;;;;;;;;;;;24.90;45.58;99865.94;5042122;28;1123;-35
2022/09/16 06:33:50;;;;;;;;;;;;;;;23.85;48.69;99876.50;5040088;28;1910;-33
2022/09/16 06:36:19;;;;;;;;;;;;;;;24.05;49.47;99878.66;5051219;28;1205;-37
2022/09/16 06:38:44;;;;;;;;;;;;;;;25.22;46.69;99879.97;5047146;28;1136;-34
2022/09/16 06:41:10;;;;;;;;;;;;;;;24.14;47.40;99875.91;5041139;28;1230;-36
2022/09/16 06:43:35;;;;;;;;;;;;;;;24.52;47.13;99880.38;5036515;28;1479;-35
2022/09/16 06:46:01;;;;;;;;;;;;;;;25.38;45.66;99884.25;5048066;28;1167;-34
2022/09/16 06:48:27;;;;;;;;;;;;;;;24.48;46.22;99887.13;5041625;28;1218;-31
2022/09/16 06:50:59;;;;;;;;;;;;;;;24.69;46.96;99881.81;5046528;28;1143;-36
2022/09/16 06:53:25;;;;;;;;;;;;;;;24.96;45.10;99806.00;5036070;28;1905;-36
2022/09/16 06:55:50;;;;;;;;;;;;;;;24.45;48.41;99882.97;5036455;28;1105;-36
2022/09/16 06:58:15;;;;;;;;;;;;;;;25.19;44.96;99897.31;5036034;28;1215;-35
2022/09/16 07:00:41;;;;;;;;;;;;;;;25.08;44.56;99897.81;5035542;28;1211;-31
2022/09/16 07:03:06;;;;;;;;;;;;;;;24.19;46.70;99897.72;5034980;28;1124;-30
2022/09/16 07:05:31;;;;;;;;;;;;;;;24.90;45.13;99896.41;5040671;28;1318;-33
2022/09/16 07:07:57;;;;;;;;;;;;;;;25.36;44.71;99890.88;5045529;28;1466;-34
2022/09/16 07:10:24;;;;;;;;;;;;;;;24.54;45.46;99897.97;5038773;28;1073;-32
2022/09/16 07:12:49;;;;;;;;;;;;;;;24.57;46.97;99911.03;5048458;28;1898;-33
2022/09/16 07:15:14;;;;;;;;;;;;;;;25.83;42.93;99895.84;5038993;28;1234;-32
2022/09/16 07:17:40;;;;;;;;;;;;;;;24.99;44.32;99901.66;5040129;28;977;-33
2022/09/16 07:20:05;;;;;;;;;;;;;;;24.33;49.06;99898.72;5036022;28;1222;-34
2022/09/16 07:22:31;;;;;;;;;;;;;;;25.58;43.49;99891.69;5043907;28;1213;-35
2022/09/16 07:24:56;;;;;;;;;;;;;;;25.38;43.67;99902.25;5036755;28;1195;-33
2022/09/16 07:27:21;;;;;;;;;;;;;;;24.60;44.80;99892.88;5036037;28;1203;-33
2022/09/16 07:29:47;;;;;;;;;;;;;;;24.60;47.31;99895.56;5049090;28;1151;-35
2022/09/16 07:32:12;;;;;;;;;;;;;;;25.95;42.11;99890.75;5049715;28;1175;-33
2022/09/16 07:34:37;;;;;;;;;;;;;;;25.12;43.42;99891.06;5038665;28;1898;-35
2022/09/16 07:37:03;;;;;;;;;;;;;;;24.48;44.69;99887.13;5040309;28;1155;-35
2022/09/16 07:39:28;;;;;;;;;;;;;;;24.91;44.43;99892.66;5041782;28;1104;-35
2022/09/16 07:41:53;;;;;;;;;;;;;;;26.09;42.88;99900.59;5035645;28;1459;-35
2022/09/16 07:44:19;;;;;;;;;;;;;;;24.97;44.34;99891.09;5034803;28;1116;-31
2022/09/16 07:46:44;;;;;;;;;;;;;;;24.35;45.00;99888.63;5052520;28;1140;-36
2022/09/16 07:49:11;;;;;;;;;;;;;;;24.27;48.91;99894.94;5041440;28;1104;-36
2022/09/16 07:51:36;;;;;;;;;;;;;;;25.58;43.19;99877.38;5043628;28;1135;-36
2022/09/16 07:54:03;;;;;;;;;;;;;;;25.29;43.39;99893.50;5040150;28;1898;-36
2022/09/16 07:56:29;;;;;;;;;;;;;;;24.61;44.50;99892.69;5043202;28;1143;-32
2022/09/16 07:58:55;;;;;;;;;;;;;;;24.38;44.35;99896.31;5035549;28;1151;-33
2022/09/16 08:01:20;;;;;;;;;;;;;;;24.58;45.53;99904.66;5046436;28;1279;-34
2022/09/16 08:03:45;;;;;;;;;;;;;;;26.07;43.53;99908.06;5040810;28;1119;-31
2022/09/16 08:06:11;;;;;;;;;;;;;;;25.04;43.66;99905.44;5039458;28;1132;-36
2022/09/16 08:08:37;;;;;;;;;;;;;;;24.61;44.19;99894.56;5039503;28;1151;-35
2022/09/16 08:11:02;;;;;;;;;;;;;;;24.18;44.86;99891.50;5058954;28;1135;-35
2022/09/16 08:13:29;;;;;;;;;;;;;;;24.69;45.10;99891.78;5053013;28;1945;-36
2022/09/16 08:15:54;;;;;;;;;;;;;;;26.01;42.61;99893.50;5040538;28;1135;-35
2022/09/16 08:18:19;;;;;;;;;;;;;;;25.02;43.73;99894.06;5052389;28;1211;-35
2022/09/16 08:20:44;;;;;;;;;;;;;;;24.51;44.67;99889.44;5052272;28;1170;-36
2022/09/16 08:23:10;;;;;;;;;;;;;;;24.19;45.00;99879.72;5038632;28;1144;-34
2022/09/16 08:25:35;;;;;;;;;;;;;;;23.97;45.70;99886.81;5045792;28;1208;-34
2022/09/16 08:28:01;;;;;;;;;;;;;;;24.25;48.48;99878.16;5040340;28;1159;-31
2022/09/16 08:30:27;;;;;;;;;;;;;;;26.06;42.04;99884.03;5052768;28;1186;-31
2022/09/16 08:32:56;;;;;;;;;;;;;;;25.45;42.68;99881.63;5053199;28;1894;-35
2022/09/16 08:35:21;;;;;;;;;;;;;;;24.76;44.03;99867.63;5051387;28;1162;-34
2022/09/16 08:37:46;;;;;;;;;;;;;;;24.51;44.59;99878.69;5043920;28;1199;-30
2022/09/16 08:40:15;;;;;;;;;;;;;;;24.20;44.97;99891.31;5050071;28;1234;-34
2022/09/16 08:43:04;;;;;;;;;;;;;;;24.04;45.42;99884.22;5045661;28;1376;-34
2022/09/16 08:45:35;;;;;;;;;;;;;;;24.69;45.17;99878.31;5036642;28;1266;-35
2022/09/16 08:48:06;;;;;;;;;;;;;;;26.33;40.94;99868.84;5051245;28;1287;-35
2022/09/16 08:50:42;;;;;;;;;;;;;;;25.89;39.78;99871.66;5040887;28;1347;-36
2022/09/16 08:53:12;;;;;;;;;;;;;;;25.61;39.69;99866.25;5037086;28;1949;-36
2022/09/16 08:55:39;;;;;;;;;;;;;;;25.00;40.82;99868.34;5037009;28;1128;-37
2022/09/16 08:58:14;;;;;;;;;;;;;;;25.06;41.03;99852.28;5037076;28;1013;-37
2022/09/16 09:00:41;;;;;;;;;;;;;;;25.02;41.10;99852.84;5038098;28;1144;-37
2022/09/16 09:03:12;;;;;;;;;;;;;;;25.18;40.41;99875.97;5053148;28;949;-31
2022/09/16 09:05:49;;;;;;;;;;;;;;;25.56;39.05;99873.03;5038208;28;1108;-33
2022/09/16 09:08:21;;;;;;;;;;;;;;;25.29;40.46;99874.66;5037991;28;1100;-30
2022/09/16 09:10:50;;;;;;;;;;;;;;;24.64;41.99;99884.25;5036810;28;1120;-32
2022/09/16 09:13:20;;;;;;;;;;;;;;;24.52;42.42;99861.56;5038596;28;2549;-31
2022/09/16 09:16:01;;;;;;;;;;;;;;;24.29;42.73;99859.81;5048809;28;1132;-32
2022/09/16 09:18:32;;;;;;;;;;;;;;;24.12;43.55;99867.19;5036631;28;1148;-31
2022/09/16 09:21:04;;;;;;;;;;;;;;;24.37;46.15;99854.34;5037485;28;1112;-33
2022/09/16 09:23:32;;;;;;;;;;;;;;;26.11;40.24;99863.50;5043679;28;1235;-32
2022/09/16 09:26:07;;;;;;;;;;;;;;;25.16;42.26;99860.03;5044120;28;1076;-32
2022/09/16 09:28:38;;;;;;;;;;;;;;;24.70;42.74;99863.84;5041408;28;1071;-35
2022/09/16 09:31:13;;;;;;;;;;;;;;;24.26;43.96;99868.22;5037096;28;1116;-30
2022/09/16 09:33:45;;;;;;;;;;;;;;;24.16;44.28;99874.72;5036200;28;1910;-33
2022/09/16 09:36:10;;;;;;;;;;;;;;;23.97;44.80;99868.81;5037425;28;1128;-36
2022/09/16 09:38:42;;;;;;;;;;;;;;;24.18;48.02;99901.41;5046751;28;1069;-31
2022/09/16 09:41:30;;;;;;;;;;;;;;;26.16;41.67;99871.84;5037840;28;1172;-32
2022/09/16 09:44:13;;;;;;;;;;;;;;;25.31;41.34;99877.97;5038616;28;1671;-30
2022/09/16 09:46:40;;;;;;;;;;;;;;;24.74;42.74;99862.44;5039987;28;1081;-33
2022/09/16 09:49:12;;;;;;;;;;;;;;;24.36;43.54;99860.72;5037719;28;1136;-32
2022/09/16 09:51:39;;;;;;;;;;;;;;;24.43;43.57;99848.22;5035823;28;985;-33
2022/09/16 09:54:25;;;;;;;;;;;;;;;24.24;44.03;99863.03;5034672;28;1894;-35
2022/09/16 09:57:03;;;;;;;;;;;;;;;24.23;47.91;99864.06;5045189;28;1636;-31
2022/09/16 09:59:33;;;;;;;;;;;;;;;26.22;40.85;99869.38;5044992;28;1076;-34
2022/09/16 10:02:00;;;;;;;;;;;;;;;25.52;41.24;99871.78;5040162;28;1099;-32
2022/09/16 10:04:25;;;;;;;;;;;;;;;24.83;42.93;99861.31;5044300;28;1081;-35
2022/09/16 10:06:51;;;;;;;;;;;;;;;24.43;43.94;99867.03;5044312;28;1136;-34
2022/09/16 10:09:17;;;;;;;;;;;;;;;24.17;44.98;99856.75;5053156;28;1245;-32
2022/09/16 10:11:46;;;;;;;;;;;;;;;24.05;45.50;99865.25;5042309;28;1281;-31
2022/09/16 10:14:20;;;;;;;;;;;;;;;23.93;46.29;99858.63;5036804;28;1898;-36
2022/09/16 10:16:46;;;;;;;;;;;;;;;25.40;44.39;99849.91;5035199;28;1321;-36
2022/09/16 10:19:18;;;;;;;;;;;;;;;25.38;42.62;99854.66;5049312;28;1444;-33
2022/09/16 10:21:48;;;;;;;;;;;;;;;24.77;44.17;99858.53;5036880;28;1232;-36
2022/09/16 10:24:32;;;;;;;;;;;;;;;24.38;44.83;99861.38;5043947;28;1032;-33
2022/09/16 10:26:58;;;;;;;;;;;;;;;24.04;45.60;99866.25;5035966;28;1148;-33
2022/09/16 10:29:23;;;;;;;;;;;;;;;23.84;46.25;99865.94;5036489;28;1143;-32
2022/09/16 10:31:48;;;;;;;;;;;;;;;23.89;48.64;99860.03;5036088;28;1192;-37
2022/09/16 10:34:16;;;;;;;;;;;;;;;25.37;45.21;99855.69;5035319;28;1906;-34
2022/09/16 10:36:42;;;;;;;;;;;;;;;25.27;44.63;99856.00;5041296;28;1282;-33
2022/09/16 10:39:15;;;;;;;;;;;;;;;24.64;45.93;99854.66;5042368;28;1203;-32
2022/09/16 10:41:41;;;;;;;;;;;;;;;24.36;46.23;99854.53;5050536;28;1407;-35
2022/09/16 10:44:24;;;;;;;;;;;;;;;23.81;47.44;99851.03;5053330;28;1647;-32
2022/09/16 10:46:53;;;;;;;;;;;;;;;23.82;47.93;99851.88;5054131;28;1369;-32
2022/09/16 10:49:19;;;;;;;;;;;;;;;24.96;45.97;99854.44;5051976;28;1160;-31
2022/09/16 10:51:44;;;;;;;;;;;;;;;25.27;44.41;99847.09;5051668;28;1255;-34
2022/09/16 10:54:21;;;;;;;;;;;;;;;24.56;45.86;99858.28;5052919;28;1902;-31
2022/09/16 10:56:47;;;;;;;;;;;;;;;24.19;46.08;99857.41;5043320;28;1330;-34
2022/09/16 10:59:13;;;;;;;;;;;;;;;24.00;50.52;99856.03;5053125;28;1403;-33
2022/09/16 11:01:44;;;;;;;;;;;;;;;25.55;44.41;99855.22;5044110;28;1203;-35
2022/09/16 11:04:15;;;;;;;;;;;;;;;25.21;44.83;99855.94;5044813;28;965;-34
2022/09/16 11:06:49;;;;;;;;;;;;;;;24.43;45.86;99850.91;5036429;28;907;-31
2022/09/16 11:09:35;;;;;;;;;;;;;;;24.07;46.17;99857.81;5034940;28;1192;-32
2022/09/16 11:12:08;;;;;;;;;;;;;;;23.80;46.70;99846.69;5034937;28;1211;-31
2022/09/16 11:14:39;;;;;;;;;;;;;;;23.91;50.96;99850.75;5043551;28;1959;-33
2022/09/16 11:17:04;;;;;;;;;;;;;;;25.73;43.67;99845.00;5036535;28;1214;-30
2022/09/16 11:19:36;;;;;;;;;;;;;;;25.13;43.00;99846.97;5036043;28;1238;-34
2022/09/16 11:22:20;;;;;;;;;;;;;;;24.57;43.37;99851.06;5035747;28;1224;-35
2022/09/16 11:25:04;;;;;;;;;;;;;;;25.12;45.01;99855.22;5035027;28;1149;-32
2022/09/16 11:27:58;;;;;;;;;;;;;;;25.58;43.63;99853.16;5040668;28;1207;-39
2022/09/16 11:30:24;;;;;;;;;;;;;;;24.57;45.00;99861.81;5034405;28;1194;-30
2022/09/16 11:33:08;;;;;;;;;;;;;;;24.15;45.73;99850.69;5046969;28;1089;-32
2022/09/16 11:35:52;;;;;;;;;;;;;;;24.27;48.78;99841.19;5041104;28;1423;-36
2022/09/16 11:38:37;;;;;;;;;;;;;;;25.88;44.55;99848.44;5046249;28;1215;-35
2022/09/16 11:41:12;;;;;;;;;;;;;;;24.62;45.40;99842.44;5000567;28;1182;-33
2022/09/16 11:43:57;;;;;;;;;;;;;;;24.15;45.63;99827.34;5042033;28;1188;-35
2022/09/16 11:46:28;;;;;;;;;;;;;;;25.16;45.27;99826.88;5047960;28;1390;-33
2022/09/16 11:49:00;;;;;;;;;;;;;;;25.37;44.45;99811.78;5039718;28;1135;-37
2022/09/16 11:51:31;;;;;;;;;;;;;;;24.52;45.56;99819.38;5047532;28;1143;-36
2022/09/16 11:53:59;;;;;;;;;;;;;;;24.29;49.17;99814.13;5039755;28;1953;-35
2022/09/16 11:56:25;;;;;;;;;;;;;;;25.66;42.27;99807.25;5039735;28;1210;-36
2022/09/16 11:58:50;;;;;;;;;;;;;;;24.75;43.02;99807.63;5038843;28;1155;-32
2022/09/16 12:01:34;;;;;;;;;;;;;;;24.73;43.63;99809.66;5042257;28;1167;-36
2022/09/16 12:04:12;;;;;;;;;;;;;;;25.56;40.50;99803.03;5050016;28;1291;-32
2022/09/16 12:06:50;;;;;;;;;;;;;;;24.72;39.72;99802.66;5043362;28;1199;-32
2022/09/16 12:09:19;;;;;;;;;;;;;;;24.92;34.83;99807.44;5046421;28;1389;-33
2022/09/16 12:11:51;;;;;;;;;;;;;;;24.90;42.42;99796.88;5053900;28;1092;-33
2022/09/16 12:14:17;;;;;;;;;;;;;;;24.74;34.11;99789.81;5055268;28;1959;-30
2022/09/16 12:16:44;;;;;;;;;;;;;;;24.66;38.08;99796.16;5047232;28;936;-31
2022/09/16 12:19:10;;;;;;;;;;;;;;;24.66;34.50;99795.31;5038243;28;1183;-32
2022/09/16 12:21:37;;;;;;;;;;;;;;;25.01;37.35;99794.66;5038113;28;1191;-33
2022/09/16 12:24:08;;;;;;;;;;;;;;;24.75;35.05;99798.72;5037895;28;1246;-33
2022/09/16 12:26:38;;;;;;;;;;;;;;;24.89;33.38;99795.16;5038048;28;1184;-32
2022/09/16 12:29:16;;;;;;;;;;;;;;;24.43;40.46;99791.75;5038447;28;1136;-34
2022/09/16 12:31:58;;;;;;;;;;;;;;;25.22;35.49;99793.84;5038799;28;1187;-35
2022/09/16 12:34:25;;;;;;;;;;;;;;;24.70;38.33;99785.84;5053744;28;1969;-33
2022/09/16 12:36:53;;;;;;;;;;;;;;;24.51;38.46;99784.59;5037823;28;1195;-33
2022/09/16 12:39:18;;;;;;;;;;;;;;;25.52;38.05;99780.22;5042195;28;1160;-32
2022/09/16 12:42:02;;;;;;;;;;;;;;;24.16;39.89;99775.28;5046750;28;1340;-36
2022/09/16 12:44:46;;;;;;;;;;;;;;;25.03;37.67;99777.31;5038663;28;1210;-36
2022/09/16 12:47:14;;;;;;;;;;;;;;;24.62;38.21;99770.69;5038746;28;1218;-35
2022/09/16 12:49:52;;;;;;;;;;;;;;;24.68;38.40;99771.75;5037447;28;1128;-39
2022/09/16 12:52:20;;;;;;;;;;;;;;;25.39;37.32;99766.66;5043661;28;967;-36
2022/09/16 12:54:49;;;;;;;;;;;;;;;24.34;40.93;99758.78;5038483;28;1961;-38
2022/09/16 12:57:14;;;;;;;;;;;;;;;25.02;36.35;99764.91;5038398;28;1206;-36
2022/09/16 12:59:39;;;;;;;;;;;;;;;24.54;37.17;99760.84;5038491;28;1191;-36
2022/09/16 13:02:17;;;;;;;;;;;;;;;24.62;36.81;99746.47;5038149;28;1116;-32
2022/09/16 13:04:44;;;;;;;;;;;;;;;25.03;36.69;99774.63;5041547;28;860;-33
2022/09/16 13:07:27;;;;;;;;;;;;;;;24.33;40.25;99767.88;5038300;28;1183;-37